sensor_id;sensor_type;location;lat;lon;timestamp;P1;durP1;ratioP1;P2;durP2;ratioP2
9801;SDS011;4940;50.900;4.672;2023-09-08T00:01:17;47.10;;;43.80;;
9801;SDS011;4940;50.900;4.672;2023-09-08T00:03:50;39.67;;;36.67;;
9801;SDS011;4940;50.900;4.672;2023-09-08T00:06:26;41.10;;;37.80;;
9801;SDS011;4940;50.900;4.672;2023-09-08T00:08:57;44.72;;;41.30;;
9801;SDS011;4940;50.900;4.672;2023-09-08T00:11:24;48.13;;;44.75;;
9801;SDS011;4940;50.900;4.672;2023-09-08T00:13:57;52.22;;;48.63;;
9801;SDS011;4940;50.900;4.672;2023-09-08T00:16:26;41.40;;;38.40;;
9801;SDS011;4940;50.900;4.672;2023-09-08T00:18:55;44.60;;;41.30;;
9801;SDS011;4940;50.900;4.672;2023-09-08T00:21:22;43.33;;;40.22;;
9801;SDS011;4940;50.900;4.672;2023-09-08T00:23:50;45.85;;;42.45;;
9801;SDS011;4940;50.900;4.672;2023-09-08T00:26:18;41.58;;;38.28;;
9801;SDS011;4940;50.900;4.672;2023-09-08T00:28:54;47.05;;;43.58;;
9801;SDS011;4940;50.900;4.672;2023-09-08T00:31:27;51.67;;;47.90;;
9801;SDS011;4940;50.900;4.672;2023-09-08T00:34:00;50.45;;;46.85;;
9801;SDS011;4940;50.900;4.672;2023-09-08T00:36:34;44.50;;;41.17;;
9801;SDS011;4940;50.900;4.672;2023-09-08T00:39:05;44.97;;;41.38;;
9801;SDS011;4940;50.900;4.672;2023-09-08T00:41:32;45.15;;;41.85;;
9801;SDS011;4940;50.900;4.672;2023-09-08T00:44:00;52.90;;;48.75;;
9801;SDS011;4940;50.900;4.672;2023-09-08T00:46:32;46.55;;;42.75;;
9801;SDS011;4940;50.900;4.672;2023-09-08T00:49:11;49.90;;;46.22;;
9801;SDS011;4940;50.900;4.672;2023-09-08T00:51:41;58.42;;;54.28;;
9801;SDS011;4940;50.900;4.672;2023-09-08T00:54:12;45.78;;;41.97;;
9801;SDS011;4940;50.900;4.672;2023-09-08T00:59:25;52.28;;;48.42;;
9801;SDS011;4940;50.900;4.672;2023-09-08T01:02:02;51.17;;;47.25;;
9801;SDS011;4940;50.900;4.672;2023-09-08T01:04:37;45.50;;;41.88;;
9801;SDS011;4940;50.900;4.672;2023-09-08T01:07:09;56.50;;;52.08;;
9801;SDS011;4940;50.900;4.672;2023-09-08T01:09:39;56.20;;;52.03;;
9801;SDS011;4940;50.900;4.672;2023-09-08T01:12:12;45.45;;;41.95;;
9801;SDS011;4940;50.900;4.672;2023-09-08T01:14:44;49.58;;;45.88;;
9801;SDS011;4940;50.900;4.672;2023-09-08T01:17:14;53.42;;;49.33;;
9801;SDS011;4940;50.900;4.672;2023-09-08T01:19:42;51.75;;;47.70;;
9801;SDS011;4940;50.900;4.672;2023-09-08T01:22:24;53.20;;;49.10;;
9801;SDS011;4940;50.900;4.672;2023-09-08T01:25:09;50.47;;;46.78;;
9801;SDS011;4940;50.900;4.672;2023-09-08T01:27:44;49.08;;;45.15;;
9801;SDS011;4940;50.900;4.672;2023-09-08T01:30:14;51.47;;;47.53;;
9801;SDS011;4940;50.900;4.672;2023-09-08T01:32:42;50.13;;;46.38;;
9801;SDS011;4940;50.900;4.672;2023-09-08T01:35:16;47.42;;;43.90;;
9801;SDS011;4940;50.900;4.672;2023-09-08T01:37:46;48.42;;;44.63;;
9801;SDS011;4940;50.900;4.672;2023-09-08T01:40:16;54.22;;;50.13;;
9801;SDS011;4940;50.900;4.672;2023-09-08T01:42:45;46.80;;;43.13;;
9801;SDS011;4940;50.900;4.672;2023-09-08T01:45:12;53.33;;;49.17;;
9801;SDS011;4940;50.900;4.672;2023-09-08T01:47:40;52.53;;;48.47;;
9801;SDS011;4940;50.900;4.672;2023-09-08T01:50:07;50.88;;;46.90;;
9801;SDS011;4940;50.900;4.672;2023-09-08T01:52:35;51.22;;;46.95;;
9801;SDS011;4940;50.900;4.672;2023-09-08T01:55:03;47.17;;;43.30;;
9801;SDS011;4940;50.900;4.672;2023-09-08T01:57:33;51.40;;;47.30;;
9801;SDS011;4940;50.900;4.672;2023-09-08T02:00:04;44.05;;;40.75;;
9801;SDS011;4940;50.900;4.672;2023-09-08T02:02:32;50.28;;;46.25;;
9801;SDS011;4940;50.900;4.672;2023-09-08T02:04:59;48.88;;;45.00;;
9801;SDS011;4940;50.900;4.672;2023-09-08T02:07:27;60.03;;;55.42;;
9801;SDS011;4940;50.900;4.672;2023-09-08T02:09:54;50.70;;;46.88;;
9801;SDS011;4940;50.900;4.672;2023-09-08T02:12:22;52.15;;;47.95;;
9801;SDS011;4940;50.900;4.672;2023-09-08T02:14:51;46.42;;;42.70;;
9801;SDS011;4940;50.900;4.672;2023-09-08T02:17:21;55.22;;;51.08;;
9801;SDS011;4940;50.900;4.672;2023-09-08T02:19:48;52.50;;;48.53;;
9801;SDS011;4940;50.900;4.672;2023-09-08T02:22:16;53.15;;;49.03;;
9801;SDS011;4940;50.900;4.672;2023-09-08T02:24:43;52.97;;;49.03;;
9801;SDS011;4940;50.900;4.672;2023-09-08T02:27:11;49.28;;;45.42;;
9801;SDS011;4940;50.900;4.672;2023-09-08T02:29:38;51.20;;;47.30;;
9801;SDS011;4940;50.900;4.672;2023-09-08T02:32:10;53.95;;;49.83;;
9801;SDS011;4940;50.900;4.672;2023-09-08T02:34:39;47.95;;;44.15;;
9801;SDS011;4940;50.900;4.672;2023-09-08T02:37:08;46.47;;;42.83;;
9801;SDS011;4940;50.900;4.672;2023-09-08T02:39:35;46.83;;;43.13;;
9801;SDS011;4940;50.900;4.672;2023-09-08T02:42:05;55.40;;;51.25;;
9801;SDS011;4940;50.900;4.672;2023-09-08T02:44:33;49.78;;;45.88;;
9801;SDS011;4940;50.900;4.672;2023-09-08T02:47:01;46.25;;;42.55;;
9801;SDS011;4940;50.900;4.672;2023-09-08T02:49:48;48.78;;;44.92;;
9801;SDS011;4940;50.900;4.672;2023-09-08T02:52:15;45.53;;;41.83;;
9801;SDS011;4940;50.900;4.672;2023-09-08T02:54:49;46.17;;;42.47;;
9801;SDS011;4940;50.900;4.672;2023-09-08T02:57:19;48.15;;;44.40;;
9801;SDS011;4940;50.900;4.672;2023-09-08T02:59:48;50.08;;;46.40;;
9801;SDS011;4940;50.900;4.672;2023-09-08T03:02:17;41.85;;;38.45;;
9801;SDS011;4940;50.900;4.672;2023-09-08T03:04:48;47.20;;;43.20;;
9801;SDS011;4940;50.900;4.672;2023-09-08T03:07:17;49.50;;;45.60;;
9801;SDS011;4940;50.900;4.672;2023-09-08T03:09:48;45.20;;;41.55;;
9801;SDS011;4940;50.900;4.672;2023-09-08T03:12:20;48.25;;;44.25;;
9801;SDS011;4940;50.900;4.672;2023-09-08T03:14:48;49.10;;;44.95;;
9801;SDS011;4940;50.900;4.672;2023-09-08T03:17:16;48.92;;;45.03;;
9801;SDS011;4940;50.900;4.672;2023-09-08T03:19:44;52.03;;;47.65;;
9801;SDS011;4940;50.900;4.672;2023-09-08T03:22:13;46.95;;;42.95;;
9801;SDS011;4940;50.900;4.672;2023-09-08T03:24:40;53.67;;;49.17;;
9801;SDS011;4940;50.900;4.672;2023-09-08T03:27:08;49.88;;;45.88;;
9801;SDS011;4940;50.900;4.672;2023-09-08T03:29:35;42.22;;;38.50;;
9801;SDS011;4940;50.900;4.672;2023-09-08T03:32:03;50.67;;;46.58;;
9801;SDS011;4940;50.900;4.672;2023-09-08T03:34:30;47.25;;;43.35;;
9801;SDS011;4940;50.900;4.672;2023-09-08T03:36:58;40.20;;;37.00;;
9801;SDS011;4940;50.900;4.672;2023-09-08T03:39:27;49.03;;;44.92;;
9801;SDS011;4940;50.900;4.672;2023-09-08T03:41:54;48.47;;;44.58;;
9801;SDS011;4940;50.900;4.672;2023-09-08T03:44:21;44.05;;;40.38;;
9801;SDS011;4940;50.900;4.672;2023-09-08T03:46:49;41.85;;;37.95;;
9801;SDS011;4940;50.900;4.672;2023-09-08T03:49:16;49.50;;;45.47;;
9801;SDS011;4940;50.900;4.672;2023-09-08T03:51:43;52.75;;;48.65;;
9801;SDS011;4940;50.900;4.672;2023-09-08T03:54:11;49.25;;;45.20;;
9801;SDS011;4940;50.900;4.672;2023-09-08T03:56:40;46.45;;;42.67;;
9801;SDS011;4940;50.900;4.672;2023-09-08T03:59:07;57.90;;;53.50;;
9801;SDS011;4940;50.900;4.672;2023-09-08T04:01:34;55.67;;;51.08;;
9801;SDS011;4940;50.900;4.672;2023-09-08T04:04:02;48.80;;;44.80;;
9801;SDS011;4940;50.900;4.672;2023-09-08T04:06:29;52.95;;;48.75;;
9801;SDS011;4940;50.900;4.672;2023-09-08T04:08:57;49.13;;;45.13;;
9801;SDS011;4940;50.900;4.672;2023-09-08T04:11:24;42.25;;;38.67;;
9801;SDS011;4940;50.900;4.672;2023-09-08T04:13:53;50.15;;;45.88;;
9801;SDS011;4940;50.900;4.672;2023-09-08T04:16:21;54.22;;;49.92;;
9801;SDS011;4940;50.900;4.672;2023-09-08T04:18:48;53.30;;;49.15;;
9801;SDS011;4940;50.900;4.672;2023-09-08T04:21:16;57.03;;;52.53;;
9801;SDS011;4940;50.900;4.672;2023-09-08T04:23:43;55.30;;;50.88;;
9801;SDS011;4940;50.900;4.672;2023-09-08T04:26:12;50.80;;;46.92;;
9801;SDS011;4940;50.900;4.672;2023-09-08T04:28:39;51.28;;;47.15;;
9801;SDS011;4940;50.900;4.672;2023-09-08T04:31:08;49.65;;;45.25;;
9801;SDS011;4940;50.900;4.672;2023-09-08T04:33:35;59.40;;;54.65;;
9801;SDS011;4940;50.900;4.672;2023-09-08T04:36:02;53.55;;;49.35;;
9801;SDS011;4940;50.900;4.672;2023-09-08T04:38:30;44.80;;;41.00;;
9801;SDS011;4940;50.900;4.672;2023-09-08T04:40:57;53.75;;;49.45;;
9801;SDS011;4940;50.900;4.672;2023-09-08T04:43:24;45.45;;;41.65;;
9801;SDS011;4940;50.900;4.672;2023-09-08T04:45:52;52.50;;;48.30;;
9801;SDS011;4940;50.900;4.672;2023-09-08T04:48:20;54.95;;;50.70;;
9801;SDS011;4940;50.900;4.672;2023-09-08T04:50:48;55.58;;;51.17;;
9801;SDS011;4940;50.900;4.672;2023-09-08T04:53:16;57.70;;;53.33;;
9801;SDS011;4940;50.900;4.672;2023-09-08T04:55:44;48.95;;;44.95;;
9801;SDS011;4940;50.900;4.672;2023-09-08T04:58:11;47.35;;;43.53;;
9801;SDS011;4940;50.900;4.672;2023-09-08T05:00:38;58.25;;;53.50;;
9801;SDS011;4940;50.900;4.672;2023-09-08T05:03:06;45.28;;;41.15;;
9801;SDS011;4940;50.900;4.672;2023-09-08T05:05:34;44.63;;;40.92;;
9801;SDS011;4940;50.900;4.672;2023-09-08T05:08:02;48.13;;;43.97;;
9801;SDS011;4940;50.900;4.672;2023-09-08T05:10:29;45.25;;;41.50;;
9801;SDS011;4940;50.900;4.672;2023-09-08T05:12:56;42.53;;;38.53;;
9801;SDS011;4940;50.900;4.672;2023-09-08T05:15:24;45.03;;;41.15;;
9801;SDS011;4940;50.900;4.672;2023-09-08T05:17:51;47.30;;;43.08;;
9801;SDS011;4940;50.900;4.672;2023-09-08T05:20:18;40.58;;;36.85;;
9801;SDS011;4940;50.900;4.672;2023-09-08T05:22:47;40.00;;;36.22;;
9801;SDS011;4940;50.900;4.672;2023-09-08T05:25:14;43.00;;;39.10;;
9801;SDS011;4940;50.900;4.672;2023-09-08T05:27:41;44.90;;;40.70;;
9801;SDS011;4940;50.900;4.672;2023-09-08T05:30:11;42.50;;;38.50;;
9801;SDS011;4940;50.900;4.672;2023-09-08T05:32:39;42.20;;;38.30;;
9801;SDS011;4940;50.900;4.672;2023-09-08T05:35:06;42.28;;;38.42;;
9801;SDS011;4940;50.900;4.672;2023-09-08T05:37:34;42.20;;;38.13;;
9801;SDS011;4940;50.900;4.672;2023-09-08T05:40:02;39.60;;;35.60;;
9801;SDS011;4940;50.900;4.672;2023-09-08T05:42:30;43.90;;;39.60;;
9801;SDS011;4940;50.900;4.672;2023-09-08T05:44:58;43.28;;;39.28;;
9801;SDS011;4940;50.900;4.672;2023-09-08T05:47:25;43.58;;;39.75;;
9801;SDS011;4940;50.900;4.672;2023-09-08T05:49:52;38.80;;;35.17;;
9801;SDS011;4940;50.900;4.672;2023-09-08T05:52:19;42.20;;;38.22;;
9801;SDS011;4940;50.900;4.672;2023-09-08T05:54:47;40.03;;;36.42;;
9801;SDS011;4940;50.900;4.672;2023-09-08T05:57:16;41.00;;;37.20;;
9801;SDS011;4940;50.900;4.672;2023-09-08T05:59:43;41.28;;;37.47;;
9801;SDS011;4940;50.900;4.672;2023-09-08T06:02:10;42.72;;;38.85;;
9801;SDS011;4940;50.900;4.672;2023-09-08T06:04:38;44.35;;;40.00;;
9801;SDS011;4940;50.900;4.672;2023-09-08T06:07:05;43.40;;;39.50;;
9801;SDS011;4940;50.900;4.672;2023-09-08T06:09:32;40.33;;;36.53;;
9801;SDS011;4940;50.900;4.672;2023-09-08T06:12:00;41.35;;;37.60;;
9801;SDS011;4940;50.900;4.672;2023-09-08T06:14:28;43.92;;;39.72;;
9801;SDS011;4940;50.900;4.672;2023-09-08T06:16:56;42.70;;;38.92;;
9801;SDS011;4940;50.900;4.672;2023-09-08T06:19:23;42.50;;;38.63;;
9801;SDS011;4940;50.900;4.672;2023-09-08T06:21:50;41.28;;;37.10;;
9801;SDS011;4940;50.900;4.672;2023-09-08T06:24:18;43.72;;;39.70;;
9801;SDS011;4940;50.900;4.672;2023-09-08T06:26:45;43.00;;;39.22;;
9801;SDS011;4940;50.900;4.672;2023-09-08T06:29:14;41.85;;;37.85;;
9801;SDS011;4940;50.900;4.672;2023-09-08T06:31:43;42.95;;;39.03;;
9801;SDS011;4940;50.900;4.672;2023-09-08T06:34:10;41.58;;;37.67;;
9801;SDS011;4940;50.900;4.672;2023-09-08T06:36:38;46.50;;;42.40;;
9801;SDS011;4940;50.900;4.672;2023-09-08T06:39:05;46.40;;;42.40;;
9801;SDS011;4940;50.900;4.672;2023-09-08T06:41:32;41.85;;;38.05;;
9801;SDS011;4940;50.900;4.672;2023-09-08T06:44:00;43.03;;;39.03;;
9801;SDS011;4940;50.900;4.672;2023-09-08T06:46:27;42.67;;;38.90;;
9801;SDS011;4940;50.900;4.672;2023-09-08T06:48:56;39.97;;;36.58;;
9801;SDS011;4940;50.900;4.672;2023-09-08T06:51:23;42.03;;;38.08;;
9801;SDS011;4940;50.900;4.672;2023-09-08T06:53:53;41.35;;;37.65;;
9801;SDS011;4940;50.900;4.672;2023-09-08T06:56:22;41.35;;;37.85;;
9801;SDS011;4940;50.900;4.672;2023-09-08T06:58:49;41.30;;;37.85;;
9801;SDS011;4940;50.900;4.672;2023-09-08T07:01:17;40.17;;;36.53;;
9801;SDS011;4940;50.900;4.672;2023-09-08T07:03:44;44.50;;;40.67;;
9801;SDS011;4940;50.900;4.672;2023-09-08T07:06:13;38.60;;;35.42;;
9801;SDS011;4940;50.900;4.672;2023-09-08T07:08:40;39.80;;;36.40;;
9801;SDS011;4940;50.900;4.672;2023-09-08T07:11:07;43.17;;;39.58;;
9801;SDS011;4940;50.900;4.672;2023-09-08T07:13:35;41.33;;;37.72;;
9801;SDS011;4940;50.900;4.672;2023-09-08T07:16:02;39.08;;;35.65;;
9801;SDS011;4940;50.900;4.672;2023-09-08T07:18:30;43.80;;;40.17;;
9801;SDS011;4940;50.900;4.672;2023-09-08T07:21:01;41.10;;;37.78;;
9801;SDS011;4940;50.900;4.672;2023-09-08T07:23:29;40.72;;;37.33;;
9801;SDS011;4940;50.900;4.672;2023-09-08T07:25:56;45.67;;;41.90;;
9801;SDS011;4940;50.900;4.672;2023-09-08T07:28:24;44.13;;;40.72;;
9801;SDS011;4940;50.900;4.672;2023-09-08T07:30:53;41.75;;;38.35;;
9801;SDS011;4940;50.900;4.672;2023-09-08T07:33:27;42.97;;;39.47;;
9801;SDS011;4940;50.900;4.672;2023-09-08T07:35:54;43.70;;;40.00;;
9801;SDS011;4940;50.900;4.672;2023-09-08T07:38:22;43.67;;;40.17;;
9801;SDS011;4940;50.900;4.672;2023-09-08T07:40:50;41.63;;;38.13;;
9801;SDS011;4940;50.900;4.672;2023-09-08T07:43:17;40.55;;;37.25;;
9801;SDS011;4940;50.900;4.672;2023-09-08T07:45:45;30.40;;;28.27;;
9801;SDS011;4940;50.900;4.672;2023-09-08T07:48:12;13.18;;;12.07;;
9801;SDS011;4940;50.900;4.672;2023-09-08T07:50:39;8.48;;;7.18;;
9801;SDS011;4940;50.900;4.672;2023-09-08T07:53:07;8.90;;;5.55;;
9801;SDS011;4940;50.900;4.672;2023-09-08T07:55:34;6.55;;;5.40;;
9801;SDS011;4940;50.900;4.672;2023-09-08T07:58:03;7.22;;;4.72;;
9801;SDS011;4940;50.900;4.672;2023-09-08T08:00:30;6.32;;;4.93;;
9801;SDS011;4940;50.900;4.672;2023-09-08T08:02:58;6.25;;;5.53;;
9801;SDS011;4940;50.900;4.672;2023-09-08T08:05:25;6.65;;;5.53;;
9801;SDS011;4940;50.900;4.672;2023-09-08T08:07:53;7.68;;;5.55;;
9801;SDS011;4940;50.900;4.672;2023-09-08T08:10:20;8.48;;;5.63;;
9801;SDS011;4940;50.900;4.672;2023-09-08T08:12:48;7.70;;;5.45;;
9801;SDS011;4940;50.900;4.672;2023-09-08T08:15:18;6.65;;;5.93;;
9801;SDS011;4940;50.900;4.672;2023-09-08T08:17:47;7.70;;;5.30;;
9801;SDS011;4940;50.900;4.672;2023-09-08T08:20:14;5.80;;;5.20;;
9801;SDS011;4940;50.900;4.672;2023-09-08T08:22:43;6.60;;;5.93;;
9801;SDS011;4940;50.900;4.672;2023-09-08T08:25:11;6.95;;;5.68;;
9801;SDS011;4940;50.900;4.672;2023-09-08T08:27:39;7.07;;;6.13;;
9801;SDS011;4940;50.900;4.672;2023-09-08T08:30:07;10.32;;;6.20;;
9801;SDS011;4940;50.900;4.672;2023-09-08T08:32:37;9.45;;;6.22;;
9801;SDS011;4940;50.900;4.672;2023-09-08T08:35:05;9.80;;;6.72;;
9801;SDS011;4940;50.900;4.672;2023-09-08T08:37:32;12.88;;;7.15;;
9801;SDS011;4940;50.900;4.672;2023-09-08T08:39:59;10.23;;;6.15;;
9801;SDS011;4940;50.900;4.672;2023-09-08T08:42:30;6.75;;;6.07;;
9801;SDS011;4940;50.900;4.672;2023-09-08T08:44:58;7.25;;;5.88;;
9801;SDS011;4940;50.900;4.672;2023-09-08T08:47:26;6.75;;;5.82;;
9801;SDS011;4940;50.900;4.672;2023-09-08T08:49:56;37.80;;;12.38;;
9801;SDS011;4940;50.900;4.672;2023-09-08T08:52:25;93.65;;;16.77;;
9801;SDS011;4940;50.900;4.672;2023-09-08T08:54:53;12.18;;;6.68;;
9801;SDS011;4940;50.900;4.672;2023-09-08T08:57:21;6.72;;;6.00;;
9801;SDS011;4940;50.900;4.672;2023-09-08T08:59:49;7.78;;;6.15;;
9801;SDS011;4940;50.900;4.672;2023-09-08T09:02:20;6.90;;;6.20;;
9801;SDS011;4940;50.900;4.672;2023-09-08T09:04:49;7.80;;;7.10;;
9801;SDS011;4940;50.900;4.672;2023-09-08T09:07:19;7.20;;;6.50;;
9801;SDS011;4940;50.900;4.672;2023-09-08T09:09:47;9.88;;;6.63;;
9801;SDS011;4940;50.900;4.672;2023-09-08T09:12:14;6.55;;;5.95;;
9801;SDS011;4940;50.900;4.672;2023-09-08T09:14:44;7.63;;;6.85;;
9801;SDS011;4940;50.900;4.672;2023-09-08T09:17:13;7.20;;;6.60;;
9801;SDS011;4940;50.900;4.672;2023-09-08T09:19:40;7.05;;;6.30;;
9801;SDS011;4940;50.900;4.672;2023-09-08T09:22:08;7.47;;;6.78;;
9801;SDS011;4940;50.900;4.672;2023-09-08T09:24:37;7.18;;;6.47;;
9801;SDS011;4940;50.900;4.672;2023-09-08T09:27:06;7.57;;;6.82;;
9801;SDS011;4940;50.900;4.672;2023-09-08T09:29:34;8.35;;;6.90;;
9801;SDS011;4940;50.900;4.672;2023-09-08T09:32:12;7.35;;;6.65;;
9801;SDS011;4940;50.900;4.672;2023-09-08T09:34:47;13.88;;;7.93;;
9801;SDS011;4940;50.900;4.672;2023-09-08T09:37:15;7.53;;;6.90;;
9801;SDS011;4940;50.900;4.672;2023-09-08T09:39:45;7.60;;;6.90;;
9801;SDS011;4940;50.900;4.672;2023-09-08T09:42:15;7.78;;;7.13;;
9801;SDS011;4940;50.900;4.672;2023-09-08T09:44:43;8.13;;;7.43;;
9801;SDS011;4940;50.900;4.672;2023-09-08T09:47:10;8.20;;;7.25;;
9801;SDS011;4940;50.900;4.672;2023-09-08T09:49:41;8.80;;;7.15;;
9801;SDS011;4940;50.900;4.672;2023-09-08T09:52:09;7.93;;;7.22;;
9801;SDS011;4940;50.900;4.672;2023-09-08T09:54:39;8.05;;;7.32;;
9801;SDS011;4940;50.900;4.672;2023-09-08T09:57:09;8.25;;;7.45;;
9801;SDS011;4940;50.900;4.672;2023-09-08T09:59:40;7.13;;;6.45;;
9801;SDS011;4940;50.900;4.672;2023-09-08T10:02:08;7.70;;;6.97;;
9801;SDS011;4940;50.900;4.672;2023-09-08T10:04:39;8.18;;;7.35;;
9801;SDS011;4940;50.900;4.672;2023-09-08T10:07:07;7.57;;;6.88;;
9801;SDS011;4940;50.900;4.672;2023-09-08T10:09:35;8.18;;;7.57;;
9801;SDS011;4940;50.900;4.672;2023-09-08T10:12:04;7.93;;;7.25;;
9801;SDS011;4940;50.900;4.672;2023-09-08T10:14:34;8.82;;;7.97;;
9801;SDS011;4940;50.900;4.672;2023-09-08T10:17:03;8.00;;;7.25;;
9801;SDS011;4940;50.900;4.672;2023-09-08T10:19:34;8.00;;;7.30;;
9801;SDS011;4940;50.900;4.672;2023-09-08T10:22:06;8.35;;;7.55;;
9801;SDS011;4940;50.900;4.672;2023-09-08T10:24:39;8.20;;;7.40;;
9801;SDS011;4940;50.900;4.672;2023-09-08T10:27:09;7.75;;;7.05;;
9801;SDS011;4940;50.900;4.672;2023-09-08T10:29:39;7.85;;;7.25;;
9801;SDS011;4940;50.900;4.672;2023-09-08T10:32:07;8.63;;;7.40;;
9801;SDS011;4940;50.900;4.672;2023-09-08T10:34:36;15.05;;;7.88;;
9801;SDS011;4940;50.900;4.672;2023-09-08T10:37:17;8.93;;;8.02;;
9801;SDS011;4940;50.900;4.672;2023-09-08T10:39:45;7.85;;;7.07;;
9801;SDS011;4940;50.900;4.672;2023-09-08T10:42:22;7.65;;;6.50;;
9801;SDS011;4940;50.900;4.672;2023-09-08T10:45:02;6.63;;;6.13;;
9801;SDS011;4940;50.900;4.672;2023-09-08T10:47:41;8.85;;;7.63;;
9801;SDS011;4940;50.900;4.672;2023-09-08T10:50:26;7.20;;;6.45;;
9801;SDS011;4940;50.900;4.672;2023-09-08T10:53:07;9.57;;;7.65;;
9801;SDS011;4940;50.900;4.672;2023-09-08T10:55:39;8.52;;;7.60;;
9801;SDS011;4940;50.900;4.672;2023-09-08T10:58:09;7.53;;;6.80;;
9801;SDS011;4940;50.900;4.672;2023-09-08T11:00:45;7.25;;;6.32;;
9801;SDS011;4940;50.900;4.672;2023-09-08T11:03:13;8.27;;;5.85;;
9801;SDS011;4940;50.900;4.672;2023-09-08T11:05:52;5.95;;;5.45;;
9801;SDS011;4940;50.900;4.672;2023-09-08T11:08:19;6.60;;;6.00;;
9801;SDS011;4940;50.900;4.672;2023-09-08T11:10:46;9.93;;;5.97;;
9801;SDS011;4940;50.900;4.672;2023-09-08T11:13:16;6.97;;;6.50;;
9801;SDS011;4940;50.900;4.672;2023-09-08T11:15:45;6.65;;;6.13;;
9801;SDS011;4940;50.900;4.672;2023-09-08T11:18:12;7.43;;;6.43;;
9801;SDS011;4940;50.900;4.672;2023-09-08T11:20:39;7.15;;;6.43;;
9801;SDS011;4940;50.900;4.672;2023-09-08T11:23:07;7.18;;;6.57;;
9801;SDS011;4940;50.900;4.672;2023-09-08T11:25:34;8.02;;;7.07;;
9801;SDS011;4940;50.900;4.672;2023-09-08T11:28:04;6.65;;;6.07;;
9801;SDS011;4940;50.900;4.672;2023-09-08T11:30:38;8.35;;;7.18;;
9801;SDS011;4940;50.900;4.672;2023-09-08T11:33:16;10.77;;;6.18;;
9801;SDS011;4940;50.900;4.672;2023-09-08T11:35:54;6.97;;;6.38;;
9801;SDS011;4940;50.900;4.672;2023-09-08T11:38:26;7.32;;;6.50;;
9801;SDS011;4940;50.900;4.672;2023-09-08T11:40:59;7.40;;;6.68;;
9801;SDS011;4940;50.900;4.672;2023-09-08T11:43:31;8.07;;;7.38;;
9801;SDS011;4940;50.900;4.672;2023-09-08T11:45:59;9.05;;;7.00;;
9801;SDS011;4940;50.900;4.672;2023-09-08T11:48:28;6.55;;;6.07;;
9801;SDS011;4940;50.900;4.672;2023-09-08T11:50:56;7.07;;;6.47;;
9801;SDS011;4940;50.900;4.672;2023-09-08T11:53:24;7.05;;;6.32;;
9801;SDS011;4940;50.900;4.672;2023-09-08T11:55:52;6.72;;;6.13;;
9801;SDS011;4940;50.900;4.672;2023-09-08T11:58:19;7.13;;;6.38;;
9801;SDS011;4940;50.900;4.672;2023-09-08T12:00:47;6.80;;;6.15;;
9801;SDS011;4940;50.900;4.672;2023-09-08T12:03:15;6.13;;;5.63;;
9801;SDS011;4940;50.900;4.672;2023-09-08T12:05:44;6.97;;;6.10;;
9801;SDS011;4940;50.900;4.672;2023-09-08T12:08:18;6.85;;;6.25;;
9801;SDS011;4940;50.900;4.672;2023-09-08T12:10:48;6.43;;;5.72;;
9801;SDS011;4940;50.900;4.672;2023-09-08T12:13:20;6.63;;;5.47;;
9801;SDS011;4940;50.900;4.672;2023-09-08T12:15:49;5.95;;;5.45;;
9801;SDS011;4940;50.900;4.672;2023-09-08T12:18:16;11.50;;;6.10;;
9801;SDS011;4940;50.900;4.672;2023-09-08T12:20:45;9.77;;;6.05;;
9801;SDS011;4940;50.900;4.672;2023-09-08T12:23:16;7.03;;;5.95;;
9801;SDS011;4940;50.900;4.672;2023-09-08T12:25:44;6.30;;;5.80;;
9801;SDS011;4940;50.900;4.672;2023-09-08T12:28:11;9.65;;;5.70;;
9801;SDS011;4940;50.900;4.672;2023-09-08T12:30:39;6.05;;;5.45;;
9801;SDS011;4940;50.900;4.672;2023-09-08T12:33:07;6.15;;;5.55;;
9801;SDS011;4940;50.900;4.672;2023-09-08T12:35:35;6.03;;;5.40;;
9801;SDS011;4940;50.900;4.672;2023-09-08T12:38:05;5.97;;;5.38;;
9801;SDS011;4940;50.900;4.672;2023-09-08T12:40:33;9.45;;;5.55;;
9801;SDS011;4940;50.900;4.672;2023-09-08T12:43:01;6.15;;;5.63;;
9801;SDS011;4940;50.900;4.672;2023-09-08T12:45:29;6.97;;;5.65;;
9801;SDS011;4940;50.900;4.672;2023-09-08T12:47:59;6.03;;;4.72;;
9801;SDS011;4940;50.900;4.672;2023-09-08T12:50:34;7.35;;;5.47;;
9801;SDS011;4940;50.900;4.672;2023-09-08T12:53:06;7.13;;;4.97;;
9801;SDS011;4940;50.900;4.672;2023-09-08T12:55:33;7.25;;;5.60;;
9801;SDS011;4940;50.900;4.672;2023-09-08T12:58:01;6.05;;;5.45;;
9801;SDS011;4940;50.900;4.672;2023-09-08T13:00:28;6.20;;;5.60;;
9801;SDS011;4940;50.900;4.672;2023-09-08T13:02:55;5.88;;;5.20;;
9801;SDS011;4940;50.900;4.672;2023-09-08T13:05:23;6.05;;;5.47;;
9801;SDS011;4940;50.900;4.672;2023-09-08T13:07:50;6.35;;;4.57;;
9801;SDS011;4940;50.900;4.672;2023-09-08T13:10:19;9.30;;;4.68;;
9801;SDS011;4940;50.900;4.672;2023-09-08T13:12:46;5.80;;;4.75;;
9801;SDS011;4940;50.900;4.672;2023-09-08T13:15:13;5.70;;;4.93;;
9801;SDS011;4940;50.900;4.672;2023-09-08T13:17:41;5.70;;;5.20;;
9801;SDS011;4940;50.900;4.672;2023-09-08T13:20:09;5.85;;;4.88;;
9801;SDS011;4940;50.900;4.672;2023-09-08T13:22:37;7.57;;;4.80;;
9801;SDS011;4940;50.900;4.672;2023-09-08T13:25:05;8.20;;;4.35;;
9801;SDS011;4940;50.900;4.672;2023-09-08T13:27:34;6.15;;;4.90;;
9801;SDS011;4940;50.900;4.672;2023-09-08T13:30:12;7.38;;;4.50;;
9801;SDS011;4940;50.900;4.672;2023-09-08T13:32:49;5.47;;;4.40;;
9801;SDS011;4940;50.900;4.672;2023-09-08T13:35:23;4.50;;;4.10;;
9801;SDS011;4940;50.900;4.672;2023-09-08T13:37:55;5.25;;;4.15;;
9801;SDS011;4940;50.900;4.672;2023-09-08T13:40:28;5.00;;;4.47;;
9801;SDS011;4940;50.900;4.672;2023-09-08T13:42:57;5.07;;;4.57;;
9801;SDS011;4940;50.900;4.672;2023-09-08T13:45:25;10.80;;;4.10;;
9801;SDS011;4940;50.900;4.672;2023-09-08T13:47:52;7.03;;;4.70;;
9801;SDS011;4940;50.900;4.672;2023-09-08T13:50:20;7.30;;;4.47;;
9801;SDS011;4940;50.900;4.672;2023-09-08T13:52:49;9.93;;;4.30;;
9801;SDS011;4940;50.900;4.672;2023-09-08T13:55:16;7.22;;;4.13;;
9801;SDS011;4940;50.900;4.672;2023-09-08T13:57:48;4.55;;;3.97;;
9801;SDS011;4940;50.900;4.672;2023-09-08T14:00:17;4.53;;;3.97;;
9801;SDS011;4940;50.900;4.672;2023-09-08T14:02:45;8.98;;;4.65;;
9801;SDS011;4940;50.900;4.672;2023-09-08T14:05:12;9.75;;;4.18;;
9801;SDS011;4940;50.900;4.672;2023-09-08T14:07:39;6.13;;;4.20;;
9801;SDS011;4940;50.900;4.672;2023-09-08T14:10:07;8.05;;;5.05;;
9801;SDS011;4940;50.900;4.672;2023-09-08T14:12:34;9.85;;;4.45;;
9801;SDS011;4940;50.900;4.672;2023-09-08T14:15:02;5.40;;;4.07;;
9801;SDS011;4940;50.900;4.672;2023-09-08T14:17:31;9.32;;;4.57;;
9801;SDS011;4940;50.900;4.672;2023-09-08T14:19:58;9.10;;;4.13;;
9801;SDS011;4940;50.900;4.672;2023-09-08T14:22:25;9.40;;;4.30;;
9801;SDS011;4940;50.900;4.672;2023-09-08T14:24:53;5.72;;;4.05;;
9801;SDS011;4940;50.900;4.672;2023-09-08T14:27:20;6.93;;;4.22;;
9801;SDS011;4940;50.900;4.672;2023-09-08T14:29:47;11.40;;;4.30;;
9801;SDS011;4940;50.900;4.672;2023-09-08T14:32:15;10.65;;;4.43;;
9801;SDS011;4940;50.900;4.672;2023-09-08T14:34:43;8.88;;;4.70;;
9801;SDS011;4940;50.900;4.672;2023-09-08T14:37:11;11.27;;;4.85;;
9801;SDS011;4940;50.900;4.672;2023-09-08T14:39:38;6.32;;;3.97;;
9801;SDS011;4940;50.900;4.672;2023-09-08T14:42:05;5.10;;;4.60;;
9801;SDS011;4940;50.900;4.672;2023-09-08T14:44:35;8.73;;;4.72;;
9801;SDS011;4940;50.900;4.672;2023-09-08T14:47:02;10.77;;;4.88;;
9801;SDS011;4940;50.900;4.672;2023-09-08T14:49:29;7.05;;;4.18;;
9801;SDS011;4940;50.900;4.672;2023-09-08T14:51:58;7.25;;;4.22;;
9801;SDS011;4940;50.900;4.672;2023-09-08T14:54:25;12.00;;;4.63;;
9801;SDS011;4940;50.900;4.672;2023-09-08T14:56:54;8.80;;;4.40;;
9801;SDS011;4940;50.900;4.672;2023-09-08T14:59:21;9.90;;;4.13;;
9801;SDS011;4940;50.900;4.672;2023-09-08T15:01:48;8.88;;;4.28;;
9801;SDS011;4940;50.900;4.672;2023-09-08T15:04:17;9.25;;;4.15;;
9801;SDS011;4940;50.900;4.672;2023-09-08T15:06:44;13.48;;;4.88;;
9801;SDS011;4940;50.900;4.672;2023-09-08T15:09:13;19.88;;;5.00;;
9801;SDS011;4940;50.900;4.672;2023-09-08T15:11:40;10.93;;;4.40;;
9801;SDS011;4940;50.900;4.672;2023-09-08T15:14:08;16.55;;;4.80;;